Time;durP1;ratioP1;P1;durP2;ratioP2;P2;SDS_P1;SDS_P2;PMS_P1;PMS_P2;Temp;Humidity;BMP_temperature;BMP_pressure;BME280_temperature;BME280_humidity;BME280_pressure;Samples;Min_cycle;Max_cycle;Signal;HPM_P1;HPM_P2
2023/01/27 00:00:00;;;;;;;;;3.00;0.00;;;;;8.05;100.00;102145.09;5055081;28;45451;-72
2023/01/27 00:02:26;;;;;;;;;4.00;1.00;;;;;8.07;100.00;102153.94;5055343;28;46158;-72
2023/01/27 00:04:51;;;;;;;;;1.25;1.00;;;;;8.10;100.00;102154.09;5055016;28;49289;-70
2023/01/27 00:07:16;;;;;;;;;1.00;1.00;;;;;8.11;100.00;102154.16;5053977;28;45420;-70
2023/01/27 00:09:42;;;;;;;;;1.00;1.00;;;;;8.10;100.00;102155.00;5055063;28;45349;-70
2023/01/27 00:15:02;;;;;;;;;1.00;1.00;;;;;8.07;100.00;102151.31;5049975;28;45302;-71
2023/01/27 00:17:28;;;;;;;;;1.00;1.00;;;;;8.08;100.00;102145.22;5054978;28;45324;-71
2023/01/27 00:19:53;;;;;;;;;2.00;1.00;;;;;8.09;100.00;102147.91;5057295;28;45404;-70
2023/01/27 00:25:03;;;;;;;;;1.50;1.00;;;;;8.09;100.00;102139.13;5048110;28;45460;-73
2023/01/27 00:27:28;;;;;;;;;1.75;1.00;;;;;8.10;100.00;102140.94;5034275;28;46592;-70
2023/01/27 00:29:54;;;;;;;;;1.75;1.00;;;;;8.09;100.00;102139.13;5034431;28;45776;-73
2023/01/27 00:35:04;;;;;;;;;2.00;0.00;;;;;8.06;100.00;102139.00;5039625;28;45400;-71
2023/01/27 00:37:29;;;;;;;;;3.00;1.00;;;;;8.10;100.00;102139.22;5051646;28;46183;-70
2023/01/27 00:39:54;;;;;;;;;2.00;0.00;;;;;8.10;100.00;102135.69;5044989;28;45369;-71
2023/01/27 00:42:20;;;;;;;;;3.25;0.50;;;;;8.12;100.00;102131.38;5031806;28;50810;-73
2023/01/27 00:45:47;;;;;;;;;2.00;1.00;;;;;8.14;100.00;102140.22;5032528;28;45416;-72
2023/01/27 00:47:30;;;;;;;;;0.75;0.75;;;;;8.18;100.00;102131.63;5041019;28;45421;-70
2023/01/27 00:49:56;;;;;;;;;3.50;0.75;;;;;8.19;100.00;102140.41;5053287;28;45561;-71
2023/01/27 00:52:21;;;;;;;;;2.00;0.00;;;;;8.22;100.00;102128.28;5056540;28;46459;-70
2023/01/27 00:54:48;;;;;;;;;1.00;1.00;;;;;8.19;100.00;102129.88;5055140;28;45230;-70
2023/01/27 00:57:13;;;;;;;;;1.00;1.00;;;;;8.25;100.00;102132.75;5032782;28;45561;-70
2023/01/27 00:59:38;;;;;;;;;1.50;0.50;;;;;8.25;100.00;102133.66;5052055;28;45315;-70
2023/01/27 01:02:04;;;;;;;;;2.50;1.00;;;;;8.26;100.00;102135.47;5031144;28;56457;-72
2023/01/27 01:04:29;;;;;;;;;3.00;1.00;;;;;8.30;100.00;102140.00;5053049;28;53465;-70
2023/01/27 01:06:55;;;;;;;;;3.50;1.00;;;;;8.29;100.00;102140.84;5054906;28;48587;-70
2023/01/27 01:09:20;;;;;;;;;0.75;0.75;;;;;8.29;100.00;102135.59;5053489;28;45475;-70
2023/01/27 01:11:45;;;;;;;;;1.25;1.00;;;;;8.27;100.00;102136.38;5054696;28;50968;-72
2023/01/27 01:14:11;;;;;;;;;2.00;0.50;;;;;8.28;100.00;102127.63;5054372;28;48743;-73
2023/01/27 01:16:36;;;;;;;;;0.00;0.00;;;;;8.28;100.00;102136.44;5050438;28;45293;-72
2023/01/27 01:19:01;;;;;;;;;2.75;0.50;;;;;8.28;100.00;102133.81;5055602;28;45310;-70
2023/01/27 01:21:27;;;;;;;;;0.50;0.50;;;;;8.30;100.00;102129.47;5055689;28;45880;-70
2023/01/27 01:23:52;;;;;;;;;1.00;1.00;;;;;8.30;100.00;102131.22;5053233;28;45455;-70
2023/01/27 01:26:17;;;;;;;;;2.00;1.00;;;;;8.31;100.00;102127.75;5055542;28;45506;-70
2023/01/27 01:28:44;;;;;;;;;3.50;1.00;;;;;8.30;100.00;102123.31;5047709;28;45466;-70
2023/01/27 01:31:13;;;;;;;;;1.00;1.00;;;;;8.30;100.00;102116.31;5033640;28;46216;-73
2023/01/27 01:33:39;;;;;;;;;3.75;1.25;;;;;8.30;100.00;102126.84;5037455;28;45471;-70
2023/01/27 01:36:09;;;;;;;;;0.25;0.25;;;;;8.30;100.00;102118.97;5050194;28;46012;-71
2023/01/27 01:38:35;;;;;;;;;3.00;2.00;;;;;8.32;100.00;102119.03;5037513;28;45308;-74
2023/01/27 01:41:00;;;;;;;;;0.00;0.00;;;;;8.33;100.00;102115.56;5038314;28;46588;-73
2023/01/27 01:43:26;;;;;;;;;3.00;1.00;;;;;8.32;100.00;102114.69;5037254;28;45479;-71
2023/01/27 01:45:58;;;;;;;;;2.00;0.50;;;;;8.34;100.00;102122.63;5047491;28;45356;-70
2023/01/27 01:48:30;;;;;;;;;3.25;0.50;;;;;8.35;100.00;102117.41;5034528;28;45535;-70
2023/01/27 01:51:13;;;;;;;;;2.00;0.00;;;;;8.36;100.00;102118.34;5047319;28;46071;-70
2023/01/27 01:54:05;;;;;;;;;2.25;1.00;;;;;8.35;100.00;102124.41;5043649;28;45430;-70
2023/01/27 01:56:41;;;;;;;;;1.00;1.00;;;;;8.35;100.00;102117.41;5042427;28;45498;-71
2023/01/27 01:59:14;;;;;;;;;1.50;0.75;;;;;8.34;100.00;102120.00;5049272;28;45364;-73
2023/01/27 02:01:39;;;;;;;;;0.75;0.75;;;;;8.35;100.00;102113.88;5048662;28;46239;-70
2023/01/27 02:04:09;;;;;;;;;2.25;1.25;;;;;8.36;100.00;102110.44;5034690;28;55317;-71
2023/01/27 02:06:40;;;;;;;;;2.00;0.00;;;;;8.37;100.00;102121.06;5020423;28;45436;-72
2023/01/27 02:09:05;;;;;;;;;0.50;0.00;;;;;8.35;100.00;102114.78;5031148;28;45517;-74
2023/01/27 02:11:31;;;;;;;;;1.75;1.00;;;;;8.37;100.00;102113.16;5034267;28;55225;-71
2023/01/27 02:14:00;;;;;;;;;0.75;0.75;;;;;8.39;100.00;102100.06;5059245;28;45371;-71
2023/01/27 02:16:26;;;;;;;;;4.50;0.50;;;;;8.39;100.00;102103.59;5054630;28;45476;-70
2023/01/27 02:18:51;;;;;;;;;1.00;1.00;;;;;8.37;100.00;102100.00;5054120;28;45506;-73
2023/01/27 02:21:17;;;;;;;;;1.50;0.00;;;;;8.36;100.00;102100.84;5055092;28;55198;-73
2023/01/27 02:23:55;;;;;;;;;5.00;1.00;;;;;8.39;100.00;102110.59;5031487;28;46262;-70
2023/01/27 02:26:27;;;;;;;;;2.75;0.50;;;;;8.39;100.00;102094.78;5056708;28;45559;-70
2023/01/27 02:28:58;;;;;;;;;3.00;0.00;;;;;8.38;100.00;102098.28;5058860;28;45639;-72
2023/01/27 02:31:23;;;;;;;;;2.00;0.50;;;;;8.37;100.00;102096.47;5055055;28;45737;-72
2023/01/27 02:33:49;;;;;;;;;0.00;0.00;;;;;8.37;100.00;102089.47;5057162;28;45348;-70
2023/01/27 02:36:17;;;;;;;;;0.00;0.00;;;;;8.38;100.00;102086.00;5037412;28;45393;-71
2023/01/27 02:38:48;;;;;;;;;1.00;1.00;;;;;8.37;100.00;102096.47;5038664;28;45454;-72
2023/01/27 02:41:17;;;;;;;;;5.75;1.00;;;;;8.37;100.00;102085.97;5031558;28;45354;-72
2023/01/27 02:43:43;;;;;;;;;1.00;1.00;;;;;8.37;100.00;102091.22;5051375;28;45702;-70
2023/01/27 02:46:08;;;;;;;;;2.25;0.00;;;;;8.36;100.00;102092.94;5053402;28;50493;-70
2023/01/27 02:48:33;;;;;;;;;0.25;0.25;;;;;8.35;100.00;102084.94;5047712;28;45555;-71
2023/01/27 02:50:59;;;;;;;;;2.00;1.00;;;;;8.34;100.00;102081.41;5035269;28;46608;-70
2023/01/27 02:53:24;;;;;;;;;0.75;0.00;;;;;8.36;100.00;102092.03;5038946;28;45332;-70
2023/01/27 02:55:49;;;;;;;;;1.75;0.50;;;;;8.39;100.00;102094.78;5048288;28;45510;-73
2023/01/27 02:58:15;;;;;;;;;2.50;1.00;;;;;8.39;100.00;102089.53;5051539;28;45601;-72
2023/01/27 03:00:41;;;;;;;;;2.00;0.50;;;;;8.37;100.00;102086.84;5050379;28;45589;-70
2023/01/27 03:03:07;;;;;;;;;1.00;0.00;;;;;8.35;100.00;102082.31;5034683;28;45438;-71
2023/01/27 03:05:33;;;;;;;;;0.50;0.50;;;;;8.36;100.00;102095.59;5036115;28;45520;-71
2023/01/27 03:07:58;;;;;;;;;2.75;0.25;;;;;8.38;100.00;102083.38;5033550;28;45327;-70
2023/01/27 03:10:23;;;;;;;;;0.00;0.00;;;;;8.38;100.00;102082.47;5049675;28;53623;-71
2023/01/27 03:12:49;;;;;;;;;0.25;0.25;;;;;8.42;100.00;102086.13;5057443;28;45567;-70
2023/01/27 03:18:14;;;;;;;;;1.00;0.00;;;;;8.39;100.00;102085.16;5053034;28;45427;-70
2023/01/27 03:20:41;;;;;;;;;2.00;0.00;;;;;8.41;100.00;102069.41;5028416;28;46678;-72
2023/01/27 03:23:07;;;;;;;;;1.00;1.00;;;;;8.40;100.00;102086.94;5031294;28;45559;-70
2023/01/27 03:25:32;;;;;;;;;1.25;0.00;;;;;8.37;100.00;102078.94;5034815;28;45471;-71
2023/01/27 03:27:58;;;;;;;;;2.00;0.75;;;;;8.39;100.00;102079.91;5038075;28;45409;-71
2023/01/27 03:30:24;;;;;;;;;1.25;0.00;;;;;8.36;100.00;102071.91;5039474;28;47752;-69
2023/01/27 03:32:49;;;;;;;;;1.00;1.00;;;;;8.33;100.00;102073.47;5052731;28;45441;-73
2023/01/27 03:35:15;;;;;;;;;1.00;1.00;;;;;8.38;100.00;102082.47;5050296;28;45285;-70
2023/01/27 03:48:37;;;;;;;;;2.75;2.00;;;;;8.38;100.00;102067.59;5035804;28;45269;-72
2023/01/27 03:51:05;;;;;;;;;4.00;2.00;;;;;8.39;100.00;102071.09;5054115;28;55148;-72
2023/01/27 03:53:31;;;;;;;;;1.75;1.00;;;;;8.40;100.00;102068.53;5048227;28;45439;-70
2023/01/27 03:55:57;;;;;;;;;2.75;0.00;;;;;8.40;100.00;102076.44;5052981;28;45415;-70
2023/01/27 03:58:22;;;;;;;;;2.00;1.00;;;;;8.43;100.00;102073.03;5052098;28;55064;-70
2023/01/27 04:00:53;;;;;;;;;2.25;1.00;;;;;8.40;100.00;102067.63;5038624;28;47229;-70
2023/01/27 04:08:49;;;;;;;;;2.00;0.75;;;;;8.42;100.00;102068.63;5050685;28;45978;-70
2023/01/27 04:14:03;;;;;;;;;1.00;1.00;;;;;8.40;100.00;102063.25;5057268;28;45399;-70
2023/01/27 04:16:29;;;;;;;;;2.00;1.00;;;;;8.40;100.00;102079.06;5039050;28;45215;-71
2023/01/27 04:18:55;;;;;;;;;1.25;1.00;;;;;8.41;100.00;102061.53;5038082;28;45601;-70
2023/01/27 04:21:20;;;;;;;;;3.75;2.00;;;;;8.42;100.00;102065.97;5038133;28;45528;-69
2023/01/27 04:23:46;;;;;;;;;0.00;0.00;;;;;8.42;100.00;102063.34;5054720;28;45324;-72
2023/01/27 04:26:11;;;;;;;;;5.50;2.25;;;;;8.42;100.00;102068.63;5047283;28;50882;-71
2023/01/27 04:28:36;;;;;;;;;3.00;0.50;;;;;8.44;100.00;102066.94;5019980;28;45463;-73
2023/01/27 04:31:02;;;;;;;;;2.00;0.25;;;;;8.41;100.00;102061.53;5045401;28;64315;-70
2023/01/27 04:33:27;;;;;;;;;2.25;1.00;;;;;8.40;100.00;102063.25;5051269;28;45560;-74
2023/01/27 04:35:52;;;;;;;;;3.00;0.00;;;;;8.43;100.00;102064.25;5053131;28;55973;-73
2023/01/27 04:38:18;;;;;;;;;0.00;0.00;;;;;8.41;100.00;102053.63;5050114;28;45510;-70
2023/01/27 04:40:44;;;;;;;;;0.25;0.25;;;;;8.42;100.00;102051.94;5052367;28;61960;-70
2023/01/27 04:43:09;;;;;;;;;2.00;1.00;;;;;8.44;100.00;102064.28;5046855;28;45449;-72
2023/01/27 04:45:35;;;;;;;;;0.00;0.00;;;;;8.42;100.00;102058.09;5043276;28;55487;-70
2023/01/27 04:48:00;;;;;;;;;1.00;1.00;;;;;8.41;100.00;102045.75;5045916;28;45269;-71
2023/01/27 04:50:26;;;;;;;;;2.00;0.00;;;;;8.44;100.00;102050.25;5047879;28;45903;-70
2023/01/27 04:52:51;;;;;;;;;1.00;0.00;;;;;8.45;100.00;102049.41;5045059;28;60046;-73
2023/01/27 04:55:16;;;;;;;;;1.50;0.25;;;;;8.41;100.00;102035.22;5042590;28;45393;-71
2023/01/27 04:57:42;;;;;;;;;1.25;1.00;;;;;8.46;100.00;102043.28;5046209;28;45458;-70
2023/01/27 05:00:09;;;;;;;;;0.75;0.75;;;;;8.45;100.00;102052.03;5026796;28;61404;-73
2023/01/27 05:02:34;;;;;;;;;0.50;0.50;;;;;8.43;100.00;102049.34;5046818;28;45424;-71
2023/01/27 05:05:03;;;;;;;;;2.00;0.25;;;;;8.44;100.00;102045.88;5048961;28;45299;-70
2023/01/27 05:07:29;;;;;;;;;0.00;0.00;;;;;8.44;100.00;102048.50;5035152;28;45713;-70
2023/01/27 05:09:54;;;;;;;;;3.00;0.75;;;;;8.46;100.00;102032.75;5052788;28;46271;-70
2023/01/27 05:12:20;;;;;;;;;1.50;0.25;;;;;8.43;100.00;102046.72;5055056;28;45466;-70
2023/01/27 05:14:45;;;;;;;;;2.50;1.00;;;;;8.45;100.00;102038.88;5048345;28;45242;-71
2023/01/27 05:17:10;;;;;;;;;0.00;0.00;;;;;8.46;100.00;102052.06;5050592;28;51549;-70
2023/01/27 05:19:36;;;;;;;;;2.00;0.00;;;;;8.47;100.00;102055.59;5046613;28;46703;-71
2023/01/27 05:22:01;;;;;;;;;1.75;0.25;;;;;8.44;100.00;102045.88;5031674;28;56427;-73
2023/01/27 05:24:26;;;;;;;;;3.00;0.75;;;;;8.46;100.00;102035.41;5052505;28;52577;-70
2023/01/27 05:26:53;;;;;;;;;6.50;1.00;;;;;8.45;100.00;102038.88;5035907;28;56232;-70
2023/01/27 05:29:18;;;;;;;;;2.25;0.00;;;;;8.46;100.00;102044.19;5030577;28;46824;-70
2023/01/27 05:31:43;;;;;;;;;0.75;0.75;;;;;8.46;100.00;102038.91;5053916;28;45302;-71
2023/01/27 05:34:09;;;;;;;;;1.00;1.00;;;;;8.47;100.00;102047.72;5047716;28;45395;-70
2023/01/27 05:36:34;;;;;;;;;2.00;1.00;;;;;8.46;100.00;102040.66;5047576;28;52053;-72
2023/01/27 05:39:00;;;;;;;;;1.00;1.00;;;;;8.46;100.00;102048.56;5049309;28;45870;-73
2023/01/27 05:41:29;;;;;;;;;1.75;1.00;;;;;8.46;100.00;102049.44;5044470;28;46591;-70
2023/01/27 05:43:55;;;;;;;;;2.25;0.00;;;;;8.47;100.00;102050.34;5030078;28;45708;-69
2023/01/27 05:46:25;;;;;;;;;1.00;1.00;;;;;8.47;100.00;102048.63;5023266;28;45273;-71
2023/01/27 05:48:55;;;;;;;;;2.00;0.00;;;;;8.44;100.00;102050.25;5044973;28;46506;-71
2023/01/27 05:51:22;;;;;;;;;2.00;0.00;;;;;8.47;100.00;102050.34;5050913;28;45461;-69
2023/01/27 05:53:48;;;;;;;;;2.50;0.00;;;;;8.48;100.00;102053.06;5028745;28;45556;-71
2023/01/27 05:56:16;;;;;;;;;0.75;0.75;;;;;8.46;100.00;102049.44;5053734;28;45484;-71
2023/01/27 05:58:42;;;;;;;;;2.75;0.50;;;;;8.46;100.00;102049.44;5045880;28;45988;-73
2023/01/27 06:01:11;;;;;;;;;0.25;0.00;;;;;8.49;100.00;102057.47;5033126;28;45305;-70
2023/01/27 06:03:37;;;;;;;;;1.00;1.00;;;;;8.50;100.00;102047.84;5035432;28;45478;-71
2023/01/27 06:06:04;;;;;;;;;1.00;1.00;;;;;8.51;100.00;102052.25;5051426;28;45423;-70
2023/01/27 06:08:29;;;;;;;;;5.50;1.50;;;;;8.48;100.00;102047.78;5052138;28;46724;-72
2023/01/27 06:10:55;;;;;;;;;1.00;1.00;;;;;8.50;100.00;102051.38;5053517;28;45312;-73
2023/01/27 06:13:22;;;;;;;;;0.00;0.00;;;;;8.48;100.00;102050.44;5055342;28;45653;-70
2023/01/27 06:15:47;;;;;;;;;1.50;1.25;;;;;8.49;100.00;102052.22;5054448;28;45363;-70
2023/01/27 06:18:14;;;;;;;;;1.00;1.00;;;;;8.48;100.00;102053.06;5028434;28;45993;-71
2023/01/27 06:20:39;;;;;;;;;5.00;1.00;;;;;8.49;100.00;102052.22;5051043;28;45288;-73
2023/01/27 06:23:06;;;;;;;;;1.00;0.00;;;;;8.50;100.00;102054.00;5035369;28;45519;-73
2023/01/27 06:25:35;;;;;;;;;0.50;0.50;;;;;8.49;100.00;102056.59;5025738;28;45417;-71
2023/01/27 06:28:00;;;;;;;;;0.00;0.00;;;;;8.48;100.00;102060.06;5053449;28;46731;-71
2023/01/27 06:30:25;;;;;;;;;1.00;0.00;;;;;8.44;100.00;102053.78;5051065;28;57718;-70
2023/01/27 06:32:51;;;;;;;;;1.00;1.00;;;;;8.49;100.00;102056.59;5048947;28;45426;-72
2023/01/27 06:35:16;;;;;;;;;3.50;1.00;;;;;8.47;100.00;102059.16;5051190;28;49527;-71
2023/01/27 06:37:41;;;;;;;;;1.00;0.75;;;;;8.45;100.00;102052.03;5046026;28;45737;-69
2023/01/27 06:40:07;;;;;;;;;2.25;0.50;;;;;8.45;100.00;102058.19;5032814;28;55851;-70
2023/01/27 06:42:33;;;;;;;;;1.00;1.00;;;;;8.47;100.00;102066.13;5051562;28;45360;-71
2023/01/27 06:44:58;;;;;;;;;1.25;1.00;;;;;8.47;100.00;102058.22;5046531;28;45647;-73
2023/01/27 06:47:24;;;;;;;;;3.50;1.00;;;;;8.48;100.00;102066.22;5044394;28;64677;-73
2023/01/27 06:49:49;;;;;;;;;1.00;1.00;;;;;8.50;100.00;102067.16;5048758;28;60873;-70
2023/01/27 06:52:14;;;;;;;;;1.00;1.00;;;;;8.49;100.00;102057.47;5047775;28;54830;-73
2023/01/27 06:54:40;;;;;;;;;1.00;1.00;;;;;8.48;100.00;102060.94;5032701;28;47374;-73
2023/01/27 06:57:08;;;;;;;;;1.25;1.00;;;;;8.50;100.00;102063.63;5046649;28;46666;-73
2023/01/27 06:59:33;;;;;;;;;1.00;1.00;;;;;8.52;100.00;102067.22;5032817;28;45499;-72
2023/01/27 07:01:59;;;;;;;;;1.00;1.00;;;;;8.49;100.00;102069.75;5046372;28;52958;-71
2023/01/27 07:04:24;;;;;;;;;1.50;1.00;;;;;8.47;100.00;102069.69;5048585;28;45471;-73
2023/01/27 07:06:49;;;;;;;;;6.75;3.75;;;;;8.49;100.00;102075.00;5047590;28;45738;-71
2023/01/27 07:09:15;;;;;;;;;3.25;2.00;;;;;8.49;100.00;102077.63;5033370;28;55317;-71
2023/01/27 07:11:40;;;;;;;;;1.00;1.00;;;;;8.47;100.00;102072.31;5157645;22;45832;-72
2023/01/27 07:14:06;;;;;;;;;2.00;0.50;;;;;8.52;100.00;102081.31;5046626;28;45119;-71
2023/01/27 07:16:31;;;;;;;;;2.00;1.00;;;;;8.53;100.00;102075.19;5052031;28;54399;-75
2023/01/27 07:18:56;;;;;;;;;1.25;1.00;;;;;8.52;100.00;102072.47;5036970;28;45467;-73
2023/01/27 07:21:22;;;;;;;;;3.00;1.00;;;;;8.54;100.00;102083.97;5049314;28;54977;-73
2023/01/27 07:23:47;;;;;;;;;1.00;1.00;;;;;8.52;100.00;102077.75;5031898;28;45455;-74
2023/01/27 07:26:12;;;;;;;;;1.00;1.00;;;;;8.52;100.00;102080.38;5036800;28;61390;-73
2023/01/27 07:28:38;;;;;;;;;3.00;1.25;;;;;8.50;100.00;102076.78;5053253;28;45550;-72
2023/01/27 07:31:03;;;;;;;;;2.75;2.00;;;;;8.49;100.00;102078.53;5046683;28;51199;-73
2023/01/27 07:33:28;;;;;;;;;5.00;2.00;;;;;8.53;100.00;102088.34;5052661;28;45495;-73
2023/01/27 07:35:54;;;;;;;;;6.50;1.50;;;;;8.54;100.00;102094.50;5056349;28;45823;-73
2023/01/27 07:38:19;;;;;;;;;2.00;1.00;;;;;8.54;100.00;102095.41;5036331;28;45352;-71
2023/01/27 07:40:45;;;;;;;;;1.00;1.00;;;;;8.56;100.00;102093.72;5048893;28;46129;-72
2023/01/27 07:43:10;;;;;;;;;1.00;1.00;;;;;8.55;100.00;102105.09;5027247;28;45527;-72
2023/01/27 07:45:36;;;;;;;;;2.00;1.00;;;;;8.55;100.00;102101.56;5051857;28;46322;-70
2023/01/27 07:48:03;;;;;;;;;7.00;2.00;;;;;8.57;100.00;102102.50;5033581;28;45623;-73
2023/01/27 07:50:28;;;;;;;;;5.50;2.50;;;;;8.57;100.00;102107.78;5040444;28;45475;-73
2023/01/27 07:52:57;;;;;;;;;3.00;1.50;;;;;8.58;100.00;102113.13;5030157;28;45554;-71
2023/01/27 07:55:22;;;;;;;;;5.50;2.00;;;;;8.58;100.00;102114.88;5030059;28;46736;-72
2023/01/27 07:57:48;;;;;;;;;1.00;1.00;;;;;8.57;100.00;102116.56;5044408;28;58119;-71
2023/01/27 08:00:14;;;;;;;;;1.00;1.00;;;;;8.58;100.00;102115.75;5050674;28;45501;-70
2023/01/27 08:02:39;;;;;;;;;2.00;1.00;;;;;8.60;100.00;102124.59;5051411;28;45234;-70
2023/01/27 08:05:06;;;;;;;;;2.50;1.50;;;;;8.61;100.00;102125.50;5051116;28;45998;-69
2023/01/27 08:07:31;;;;;;;;;3.25;2.00;;;;;8.59;100.00;102133.34;5048762;28;45482;-71
2023/01/27 08:09:56;;;;;;;;;2.75;2.00;;;;;8.61;100.00;102128.13;5030510;28;45297;-71
2023/01/27 08:12:22;;;;;;;;;2.75;1.75;;;;;8.64;100.00;102130.91;5046774;28;45480;-70
2023/01/27 08:14:47;;;;;;;;;2.00;2.00;;;;;8.64;100.00;102136.16;5030824;28;52951;-70
2023/01/27 08:17:12;;;;;;;;;3.00;2.00;;;;;8.67;100.00;102138.91;5028517;28;60049;-73
2023/01/27 08:19:38;;;;;;;;;1.50;1.50;;;;;8.64;100.00;102138.81;5043791;28;45315;-73
2023/01/27 08:22:03;;;;;;;;;5.25;1.25;;;;;8.64;100.00;102130.91;5042981;28;51929;-74
2023/01/27 08:24:28;;;;;;;;;2.00;1.00;;;;;8.65;100.00;102133.59;5056524;28;56302;-71
2023/01/27 08:26:54;;;;;;;;;5.00;2.00;;;;;8.65;100.00;102130.94;5056696;28;45406;-71
2023/01/27 08:29:19;;;;;;;;;2.25;1.50;;;;;8.68;100.00;102140.69;5054836;28;45490;-70
2023/01/27 08:31:45;;;;;;;;;2.25;2.00;;;;;8.69;100.00;102142.50;5072197;28;45435;-70
2023/01/27 08:34:10;;;;;;;;;1.75;1.75;;;;;8.70;100.00;102136.41;5055895;28;45546;-70
2023/01/27 08:36:40;;;;;;;;;2.00;0.50;;;;;8.71;100.00;102140.81;5051274;28;45490;-72
2023/01/27 08:39:06;;;;;;;;;2.50;2.50;;;;;8.71;100.00;102145.19;5051751;28;45301;-73
2023/01/27 08:41:31;;;;;;;;;6.25;2.50;;;;;8.73;100.00;102154.94;5062991;28;45248;-73
2023/01/27 08:43:56;;;;;;;;;5.50;3.00;;;;;8.72;100.00;102153.16;5065063;28;59808;-71
2023/01/27 08:46:22;;;;;;;;;4.25;2.50;;;;;8.73;100.00;102154.03;5071196;28;58478;-72
2023/01/27 08:48:49;;;;;;;;;6.00;3.00;;;;;8.74;100.00;102154.13;5063621;28;45519;-70
2023/01/27 08:51:14;;;;;;;;;7.75;2.25;;;;;8.72;100.00;102150.50;5058154;28;45323;-70
2023/01/27 08:53:40;;;;;;;;;2.75;2.00;;;;;8.76;100.00;102148.91;5051013;28;46442;-72
2023/01/27 08:56:09;;;;;;;;;6.50;2.75;;;;;8.79;100.00;102159.53;5069765;28;45466;-71
2023/01/27 08:58:35;;;;;;;;;3.00;1.75;;;;;8.81;100.00;102169.31;5049181;28;45514;-74
2023/01/27 09:01:02;;;;;;;;;7.50;3.00;;;;;8.81;100.00;102143.00;5062373;28;45477;-71
2023/01/27 09:03:29;;;;;;;;;3.00;2.00;;;;;8.83;100.00;102154.47;5047864;28;45931;-73
2023/01/27 09:05:54;;;;;;;;;5.50;2.25;;;;;8.85;100.00;102152.81;5068735;28;45613;-72
2023/01/27 09:08:19;;;;;;;;;3.00;2.25;;;;;8.85;100.00;102150.19;5069593;27;46443;-71
2023/01/27 09:10:45;;;;;;;;;3.25;3.25;;;;;8.87;100.00;102163.41;5069487;27;45521;-72
2023/01/27 09:13:10;;;;;;;;;5.25;3.00;;;;;8.84;100.00;102156.28;5040088;27;60992;-71
2023/01/27 09:15:36;;;;;;;;;7.50;3.25;;;;;8.85;100.00;102168.63;5074945;27;45352;-71
2023/01/27 09:18:01;;;;;;;;;8.75;3.00;;;;;8.85;100.00;102162.44;5068844;27;45438;-72
2023/01/27 09:20:27;;;;;;;;;8.00;4.75;;;;;8.86;100.00;102166.88;5072456;27;45602;-71
2023/01/27 09:22:54;;;;;;;;;6.00;4.00;;;;;8.85;100.00;102160.72;5052440;28;59718;-71
2023/01/27 09:25:19;;;;;;;;;6.50;3.00;;;;;8.87;100.00;102163.41;5061854;27;45584;-71
2023/01/27 09:27:44;;;;;;;;;6.00;2.50;;;;;8.88;100.00;102162.56;5071581;27;45538;-73
2023/01/27 09:30:12;;;;;;;;;4.50;3.25;;;;;8.89;100.00;102172.25;5054841;28;45680;-72
2023/01/27 09:32:37;;;;;;;;;6.00;4.25;;;;;8.91;100.00;102160.94;5065384;28;47614;-73
2023/01/27 09:35:03;;;;;;;;;4.75;3.75;;;;;8.90;100.00;102174.06;5064695;27;45402;-73
2023/01/27 09:37:29;;;;;;;;;3.00;1.00;;;;;8.87;100.00;102152.88;5069851;27;45242;-71
2023/01/27 09:39:58;;;;;;;;;4.25;2.50;;;;;8.92;100.00;102164.47;5064551;28;50719;-72
2023/01/27 09:42:42;;;;;;;;;6.25;2.50;;;;;8.97;100.00;102167.28;5059879;28;45776;-72
2023/01/27 09:45:31;;;;;;;;;3.75;2.25;;;;;8.96;100.00;102168.13;5066078;28;45589;-70
2023/01/27 09:47:59;;;;;;;;;5.50;3.00;;;;;8.96;100.00;102179.56;5069772;28;45235;-73
2023/01/27 09:50:43;;;;;;;;;8.25;2.75;;;;;8.98;100.00;102174.34;5072149;27;45491;-71
2023/01/27 09:53:44;;;;;;;;;5.75;3.00;;;;;8.95;100.00;102169.88;5072918;27;47252;-71
2023/01/27 09:56:19;;;;;;;;;2.00;2.00;;;;;8.93;100.00;102177.69;5063660;28;45548;-73
2023/01/27 09:58:56;;;;;;;;;5.25;3.50;;;;;8.87;100.00;102180.09;5062541;27;45394;-73
2023/01/27 10:01:41;;;;;;;;;4.25;2.25;;;;;8.80;100.00;102170.16;5061855;28;46371;-71
2023/01/27 10:04:31;;;;;;;;;4.50;2.00;;;;;8.85;100.00;102180.88;5065005;28;46071;-74
2023/01/27 10:07:11;;;;;;;;;3.00;3.00;;;;;8.82;100.00;102184.28;5066246;28;45457;-73
2023/01/27 10:09:59;;;;;;;;;4.75;4.00;;;;;8.83;100.00;102190.44;5056504;28;45479;-73
2023/01/27 10:12:46;;;;;;;;;3.25;2.00;;;;;8.83;100.00;102198.34;5067405;28;45494;-70
2023/01/27 10:15:14;;;;;;;;;5.00;2.00;;;;;8.87;100.00;102200.28;5066407;27;45599;-71
2023/01/27 10:17:59;;;;;;;;;5.00;3.00;;;;;8.86;100.00;102191.47;5059873;28;45458;-71
2023/01/27 10:20:34;;;;;;;;;8.25;6.50;;;;;8.90;100.00;102197.78;5062411;28;45248;-71
2023/01/27 10:23:09;;;;;;;;;6.50;3.00;;;;;8.89;100.00;102194.25;5062953;28;46097;-73
2023/01/27 10:25:54;;;;;;;;;6.25;3.00;;;;;8.90;100.00;102193.41;5068199;28;46801;-70
2023/01/27 10:28:23;;;;;;;;;3.00;3.00;;;;;8.93;100.00;102203.16;5064135;27;45523;-72
2023/01/27 10:31:00;;;;;;;;;6.50;3.75;;;;;8.95;100.00;102193.59;5054201;28;45265;-72
2023/01/27 10:34:04;;;;;;;;;4.25;4.25;;;;;8.97;100.00;102197.16;5068409;27;45581;-71
2023/01/27 10:36:38;;;;;;;;;4.00;2.25;;;;;8.98;100.00;102201.59;5048790;28;46397;-72
2023/01/27 10:40:15;;;;;;;;;3.00;3.00;;;;;9.03;100.00;102204.41;5069489;28;45434;-71
2023/01/27 10:42:51;;;;;;;;;3.25;3.00;;;;;9.02;100.00;102203.53;4980065;28;45531;-72
2023/01/27 10:45:55;;;;;;;;;5.50;4.25;;;;;9.01;100.00;102195.56;5018346;28;45595;-71
2023/01/27 10:48:35;;;;;;;;;7.00;3.00;;;;;8.98;100.00;102201.59;5071686;27;46513;-70
2023/01/27 10:51:08;;;;;;;;;3.25;3.00;;;;;9.00;100.00;102206.91;5069504;28;45559;-70
2023/01/27 10:53:56;;;;;;;;;6.00;3.00;;;;;8.99;100.00;102206.00;5057728;28;45601;-69
2023/01/27 10:56:27;;;;;;;;;3.50;3.00;;;;;9.00;100.00;102206.91;5071842;28;45470;-70
2023/01/27 10:59:02;;;;;;;;;7.50;3.00;;;;;8.97;100.00;102210.34;5066406;28;46031;-72
2023/01/27 11:01:34;;;;;;;;;4.50;2.75;;;;;8.98;100.00;102205.97;5069758;28;45476;-73
2023/01/27 11:04:13;;;;;;;;;3.50;3.50;;;;;8.99;100.00;102203.38;5048919;28;45563;-73
2023/01/27 11:06:40;;;;;;;;;2.00;2.00;;;;;9.00;100.00;102201.66;5058841;28;45585;-73
2023/01/27 11:09:29;;;;;;;;;7.00;3.00;;;;;8.99;100.00;102207.75;5050294;28;45986;-70
2023/01/27 11:12:00;;;;;;;;;2.75;2.75;;;;;8.95;100.00;102206.75;5051772;28;45490;-70
2023/01/27 11:14:29;;;;;;;;;5.00;3.00;;;;;8.95;100.00;102206.75;5065354;28;45241;-70
2023/01/27 11:17:13;;;;;;;;;3.00;3.00;;;;;8.93;100.00;102203.16;5054368;28;45409;-71
2023/01/27 11:19:46;;;;;;;;;5.25;3.75;;;;;8.92;100.00;102202.25;5056403;28;46968;-70
2023/01/27 11:22:19;;;;;;;;;4.00;3.00;;;;;8.91;100.00;102197.81;5049406;28;45502;-70
2023/01/27 11:24:46;;;;;;;;;4.00;2.00;;;;;8.90;100.00;102209.22;5053899;28;45435;-69
2023/01/27 11:27:15;;;;;;;;;6.00;3.00;;;;;8.91;100.00;102207.47;5052803;28;45621;-69
2023/01/27 11:30:03;;;;;;;;;5.50;3.75;;;;;8.89;100.00;102191.63;5074765;28;46745;-70
2023/01/27 11:32:47;;;;;;;;;6.25;3.50;;;;;8.96;100.00;102189.22;5065757;28;45439;-70
2023/01/27 11:35:14;;;;;;;;;5.50;5.50;;;;;8.98;100.00;102172.63;5063643;28;45430;-69
2023/01/27 11:37:44;;;;;;;;;5.75;5.75;;;;;9.00;100.00;102191.09;5060402;28;45497;-70
2023/01/27 11:40:12;;;;;;;;;5.25;3.75;;;;;9.02;100.00;102177.16;5063722;28;46074;-69
2023/01/27 11:42:38;;;;;;;;;7.25;4.25;;;;;9.04;100.00;102177.22;5060353;28;45758;-70
2023/01/27 11:45:04;;;;;;;;;9.25;4.25;;;;;9.03;100.00;102168.41;5061551;28;45409;-72
2023/01/27 11:47:33;;;;;;;;;7.00;4.25;;;;;9.07;100.00;102159.81;5055845;28;45482;-72
2023/01/27 11:49:59;;;;;;;;;2.25;2.25;;;;;9.06;100.00;102165.91;5054903;28;45792;-70
2023/01/27 11:52:27;;;;;;;;;6.50;3.25;;;;;9.08;100.00;102172.13;5062602;28;45484;-70
2023/01/27 11:55:09;;;;;;;;;4.75;4.75;;;;;9.10;100.00;102172.19;5069259;28;45577;-73
2023/01/27 11:57:37;;;;;;;;;3.75;3.75;;;;;9.06;100.00;102170.28;5043786;28;45476;-72
2023/01/27 12:00:04;;;;;;;;;5.25;5.00;;;;;9.02;100.00;102174.53;5056697;28;45534;-73